sensor_id;sensor_type;location;lat;lon;timestamp;pressure;altitude;pressure_sealevel;temperature;humidity
14818;BME280;7500;57.698;11.986;2023-01-31T00:01:07;100737.13;;;5.47;100.00
14818;BME280;7500;57.698;11.986;2023-01-31T00:03:34;100741.41;;;5.49;100.00
14818;BME280;7500;57.698;11.986;2023-01-31T00:06:16;100736.19;;;5.49;100.00
14818;BME280;7500;57.698;11.986;2023-01-31T00:08:44;100730.88;;;5.51;100.00
14818;BME280;7500;57.698;11.986;2023-01-31T00:11:12;100719.81;;;5.43;100.00
14818;BME280;7500;57.698;11.986;2023-01-31T00:13:40;100732.78;;;5.46;100.00
14818;BME280;7500;57.698;11.986;2023-01-31T00:16:09;100726.94;;;5.65;100.00
14818;BME280;7500;57.698;11.986;2023-01-31T00:18:37;100718.13;;;5.67;100.00
14818;BME280;7500;57.698;11.986;2023-01-31T00:21:06;100694.22;;;5.51;100.00
14818;BME280;7500;57.698;11.986;2023-01-31T00:23:33;100711.31;;;5.62;100.00
14818;BME280;7500;57.698;11.986;2023-01-31T00:26:10;100714.16;;;5.56;100.00
14818;BME280;7500;57.698;11.986;2023-01-31T00:28:38;100720.41;;;5.51;100.00
14818;BME280;7500;57.698;11.986;2023-01-31T00:31:08;100723.94;;;5.50;100.00
14818;BME280;7500;57.698;11.986;2023-01-31T00:33:36;100726.53;;;5.51;100.00
14818;BME280;7500;57.698;11.986;2023-01-31T00:36:04;100729.94;;;5.53;100.00
14818;BME280;7500;57.698;11.986;2023-01-31T00:38:32;100728.25;;;5.52;100.00
14818;BME280;7500;57.698;11.986;2023-01-31T00:40:59;100736.22;;;5.48;100.00
14818;BME280;7500;57.698;11.986;2023-01-31T00:43:26;100741.34;;;5.51;100.00
14818;BME280;7500;57.698;11.986;2023-01-31T00:45:53;100744.88;;;5.50;100.00
14818;BME280;7500;57.698;11.986;2023-01-31T00:48:22;100757.97;;;5.50;100.00
14818;BME280;7500;57.698;11.986;2023-01-31T00:50:49;100764.19;;;5.46;100.00
14818;BME280;7500;57.698;11.986;2023-01-31T00:53:15;100758.13;;;5.45;100.00
14818;BME280;7500;57.698;11.986;2023-01-31T00:55:47;100746.84;;;5.43;100.00
14818;BME280;7500;57.698;11.986;2023-01-31T00:58:14;100687.00;;;5.04;100.00
14818;BME280;7500;57.698;11.986;2023-01-31T01:00:41;100766.78;;;5.47;100.00
14818;BME280;7500;57.698;11.986;2023-01-31T01:03:08;100771.94;;;5.50;100.00
14818;BME280;7500;57.698;11.986;2023-01-31T01:05:36;100769.31;;;5.50;100.00
14818;BME280;7500;57.698;11.986;2023-01-31T01:08:04;100769.56;;;5.43;100.00
14818;BME280;7500;57.698;11.986;2023-01-31T01:10:30;100772.22;;;5.41;100.00
14818;BME280;7500;57.698;11.986;2023-01-31T01:12:57;100777.50;;;5.40;100.00
14818;BME280;7500;57.698;11.986;2023-01-31T01:15:24;100776.59;;;5.41;100.00
14818;BME280;7500;57.698;11.986;2023-01-31T01:17:51;100767.84;;;5.42;100.00
14818;BME280;7500;57.698;11.986;2023-01-31T01:20:18;100765.25;;;5.40;100.00
14818;BME280;7500;57.698;11.986;2023-01-31T01:22:47;100758.28;;;5.41;100.00
14818;BME280;7500;57.698;11.986;2023-01-31T01:25:14;100756.41;;;5.44;100.00
14818;BME280;7500;57.698;11.986;2023-01-31T01:27:40;100752.16;;;5.40;100.00
14818;BME280;7500;57.698;11.986;2023-01-31T01:30:09;100763.41;;;5.44;100.00
14818;BME280;7500;57.698;11.986;2023-01-31T01:32:36;100770.34;;;5.45;100.00
14818;BME280;7500;57.698;11.986;2023-01-31T01:35:03;100759.75;;;5.49;100.00
14818;BME280;7500;57.698;11.986;2023-01-31T01:37:30;100782.34;;;5.52;100.00
14818;BME280;7500;57.698;11.986;2023-01-31T01:40:00;100773.09;;;5.42;100.00
14818;BME280;7500;57.698;11.986;2023-01-31T01:42:33;100777.25;;;5.47;100.00
14818;BME280;7500;57.698;11.986;2023-01-31T01:45:01;100778.75;;;5.55;100.00
14818;BME280;7500;57.698;11.986;2023-01-31T01:47:41;100794.41;;;5.57;100.00
14818;BME280;7500;57.698;11.986;2023-01-31T01:50:13;100783.06;;;5.56;100.00
14818;BME280;7500;57.698;11.986;2023-01-31T01:52:46;100787.41;;;5.57;100.00
14818;BME280;7500;57.698;11.986;2023-01-31T01:55:20;100786.50;;;5.58;100.00
14818;BME280;7500;57.698;11.986;2023-01-31T01:57:49;100777.00;;;5.56;100.00
14818;BME280;7500;57.698;11.986;2023-01-31T02:00:19;100790.75;;;5.62;100.00
14818;BME280;7500;57.698;11.986;2023-01-31T02:02:48;100791.56;;;5.64;100.00
14818;BME280;7500;57.698;11.986;2023-01-31T02:05:20;100799.22;;;5.70;100.00
14818;BME280;7500;57.698;11.986;2023-01-31T02:07:48;100807.75;;;5.77;100.00
14818;BME280;7500;57.698;11.986;2023-01-31T02:10:20;100810.44;;;5.75;100.00
14818;BME280;7500;57.698;11.986;2023-01-31T02:12:48;100810.25;;;5.81;100.00
14818;BME280;7500;57.698;11.986;2023-01-31T02:15:16;100814.94;;;5.70;100.00
14818;BME280;7500;57.698;11.986;2023-01-31T02:17:43;100819.56;;;5.62;100.00
14818;BME280;7500;57.698;11.986;2023-01-31T02:20:21;100826.66;;;5.59;100.00
14818;BME280;7500;57.698;11.986;2023-01-31T02:23:09;100748.59;;;5.14;100.00
14818;BME280;7500;57.698;11.986;2023-01-31T02:26:12;100813.41;;;5.63;100.00
14818;BME280;7500;57.698;11.986;2023-01-31T02:35:01;100804.06;;;5.55;100.00
14818;BME280;7500;57.698;11.986;2023-01-31T02:37:37;100805.81;;;5.54;100.00
14818;BME280;7500;57.698;11.986;2023-01-31T02:40:16;100806.63;;;5.56;100.00
14818;BME280;7500;57.698;11.986;2023-01-31T02:42:53;100808.41;;;5.56;100.00
14818;BME280;7500;57.698;11.986;2023-01-31T02:45:30;100795.34;;;5.54;100.00
14818;BME280;7500;57.698;11.986;2023-01-31T02:48:07;100802.38;;;5.53;100.00
14818;BME280;7500;57.698;11.986;2023-01-31T02:50:45;100797.03;;;5.57;100.00
14818;BME280;7500;57.698;11.986;2023-01-31T02:53:20;100783.84;;;5.60;100.00
14818;BME280;7500;57.698;11.986;2023-01-31T02:55:54;100777.66;;;5.62;100.00
14818;BME280;7500;57.698;11.986;2023-01-31T02:58:46;100779.47;;;5.60;100.00
14818;BME280;7500;57.698;11.986;2023-01-31T03:01:20;100775.13;;;5.59;100.00
14818;BME280;7500;57.698;11.986;2023-01-31T03:03:49;100775.03;;;5.62;100.00
14818;BME280;7500;57.698;11.986;2023-01-31T03:09:37;100753.63;;;5.49;100.00
14818;BME280;7500;57.698;11.986;2023-01-31T03:12:31;100753.53;;;5.53;100.00
14818;BME280;7500;57.698;11.986;2023-01-31T03:15:12;100774.13;;;5.63;100.00
14818;BME280;7500;57.698;11.986;2023-01-31T03:17:50;100758.41;;;5.63;100.00
14818;BME280;7500;57.698;11.986;2023-01-31T03:20:23;100765.38;;;5.64;100.00
14818;BME280;7500;57.698;11.986;2023-01-31T03:22:55;100774.88;;;5.67;100.00
14818;BME280;7500;57.698;11.986;2023-01-31T03:25:27;100771.41;;;5.66;100.00
14818;BME280;7500;57.698;11.986;2023-01-31T03:27:57;100760.97;;;5.65;100.00
14818;BME280;7500;57.698;11.986;2023-01-31T03:30:31;100764.50;;;5.64;100.00
14818;BME280;7500;57.698;11.986;2023-01-31T03:33:04;100766.28;;;5.63;100.00
14818;BME280;7500;57.698;11.986;2023-01-31T03:35:33;100766.19;;;5.66;100.00
14818;BME280;7500;57.698;11.986;2023-01-31T03:38:07;100759.31;;;5.62;100.00
14818;BME280;7500;57.698;11.986;2023-01-31T03:40:40;100760.22;;;5.61;100.00
14818;BME280;7500;57.698;11.986;2023-01-31T03:43:13;100757.75;;;5.57;100.00
14818;BME280;7500;57.698;11.986;2023-01-31T03:45:46;100765.66;;;5.55;100.00
14818;BME280;7500;57.698;11.986;2023-01-31T03:48:14;100754.25;;;5.58;100.00
14818;BME280;7500;57.698;11.986;2023-01-31T03:50:48;100761.22;;;5.57;100.00
14818;BME280;7500;57.698;11.986;2023-01-31T03:53:20;100765.56;;;5.58;100.00
14818;BME280;7500;57.698;11.986;2023-01-31T03:55:52;100759.31;;;5.62;100.00
14818;BME280;7500;57.698;11.986;2023-01-31T03:58:25;100741.25;;;5.53;100.00
14818;BME280;7500;57.698;11.986;2023-01-31T04:00:55;100755.16;;;5.55;100.00
14818;BME280;7500;57.698;11.986;2023-01-31T04:03:26;100754.28;;;5.56;100.00
14818;BME280;7500;57.698;11.986;2023-01-31T04:05:54;100769.81;;;5.61;100.00
14818;BME280;7500;57.698;11.986;2023-01-31T04:08:21;100770.69;;;5.61;100.00
14818;BME280;7500;57.698;11.986;2023-01-31T04:10:50;100764.59;;;5.61;100.00
14818;BME280;7500;57.698;11.986;2023-01-31T04:13:17;100756.69;;;5.62;100.00
14818;BME280;7500;57.698;11.986;2023-01-31T04:15:44;100768.81;;;5.66;100.00
14818;BME280;7500;57.698;11.986;2023-01-31T04:18:11;100766.22;;;5.65;100.00
14818;BME280;7500;57.698;11.986;2023-01-31T04:20:37;100763.28;;;5.75;100.00
14818;BME280;7500;57.698;11.986;2023-01-31T04:23:04;100755.34;;;5.78;100.00
14818;BME280;7500;57.698;11.986;2023-01-31T04:25:31;100752.72;;;5.78;100.00
14818;BME280;7500;57.698;11.986;2023-01-31T04:28:00;100752.91;;;5.72;100.00
14818;BME280;7500;57.698;11.986;2023-01-31T04:30:27;100749.66;;;5.64;100.00
14818;BME280;7500;57.698;11.986;2023-01-31T04:32:53;100752.31;;;5.63;100.00
14818;BME280;7500;57.698;11.986;2023-01-31T04:35:20;100756.69;;;5.62;100.00
14818;BME280;7500;57.698;11.986;2023-01-31T04:37:47;100749.91;;;5.57;100.00
14818;BME280;7500;57.698;11.986;2023-01-31T04:40:14;100756.97;;;5.53;100.00
14818;BME280;7500;57.698;11.986;2023-01-31T04:42:41;100744.88;;;5.50;100.00
14818;BME280;7500;57.698;11.986;2023-01-31T04:45:10;100743.25;;;5.46;100.00
14818;BME280;7500;57.698;11.986;2023-01-31T04:47:37;100732.03;;;5.42;100.00
14818;BME280;7500;57.698;11.986;2023-01-31T04:50:05;100738.91;;;5.46;100.00
14818;BME280;7500;57.698;11.986;2023-01-31T04:52:32;100741.44;;;5.48;100.00
14818;BME280;7500;57.698;11.986;2023-01-31T04:54:58;100730.06;;;5.49;100.00
14818;BME280;7500;57.698;11.986;2023-01-31T04:57:25;100729.16;;;5.51;100.00
14818;BME280;7500;57.698;11.986;2023-01-31T04:59:52;100718.69;;;5.50;100.00
14818;BME280;7500;57.698;11.986;2023-01-31T05:02:21;100727.38;;;5.52;100.00
14818;BME280;7500;57.698;11.986;2023-01-31T05:04:48;100716.19;;;5.47;100.00
14818;BME280;7500;57.698;11.986;2023-01-31T05:07:14;100729.25;;;5.47;100.00
14818;BME280;7500;57.698;11.986;2023-01-31T05:09:41;100644.44;;;4.99;100.00
14818;BME280;7500;57.698;11.986;2023-01-31T05:12:09;100731.94;;;5.45;100.00
14818;BME280;7500;57.698;11.986;2023-01-31T05:14:35;100716.41;;;5.39;100.00
14818;BME280;7500;57.698;11.986;2023-01-31T05:17:02;100720.72;;;5.42;100.00
14818;BME280;7500;57.698;11.986;2023-01-31T05:19:30;100720.75;;;5.40;100.00
14818;BME280;7500;57.698;11.986;2023-01-31T05:21:57;100716.41;;;5.39;100.00
14818;BME280;7500;57.698;11.986;2023-01-31T05:24:25;100709.47;;;5.38;100.00
14818;BME280;7500;57.698;11.986;2023-01-31T05:26:53;100699.25;;;5.31;100.00
14818;BME280;7500;57.698;11.986;2023-01-31T05:29:23;100692.13;;;5.36;100.00
14818;BME280;7500;57.698;11.986;2023-01-31T05:31:51;100691.41;;;5.31;100.00
14818;BME280;7500;57.698;11.986;2023-01-31T05:34:18;100687.91;;;5.30;100.00
14818;BME280;7500;57.698;11.986;2023-01-31T05:36:46;100688.97;;;5.25;100.00
14818;BME280;7500;57.698;11.986;2023-01-31T05:39:13;100695.09;;;5.24;100.00
14818;BME280;7500;57.698;11.986;2023-01-31T05:41:40;100690.75;;;5.24;100.00
14818;BME280;7500;57.698;11.986;2023-01-31T05:44:07;100687.41;;;5.19;100.00
14818;BME280;7500;57.698;11.986;2023-01-31T05:46:35;100693.38;;;5.23;100.00
14818;BME280;7500;57.698;11.986;2023-01-31T05:49:02;100691.66;;;5.22;100.00
14818;BME280;7500;57.698;11.986;2023-01-31T05:51:29;100695.06;;;5.25;100.00
14818;BME280;7500;57.698;11.986;2023-01-31T05:53:58;100701.97;;;5.28;100.00
14818;BME280;7500;57.698;11.986;2023-01-31T05:56:25;100689.03;;;5.23;100.00
14818;BME280;7500;57.698;11.986;2023-01-31T05:58:52;100689.78;;;5.27;100.00
14818;BME280;7500;57.698;11.986;2023-01-31T06:01:19;100688.81;;;5.29;100.00
14818;BME280;7500;57.698;11.986;2023-01-31T06:03:46;100690.59;;;5.29;100.00
14818;BME280;7500;57.698;11.986;2023-01-31T06:06:13;100692.16;;;5.34;100.00
14818;BME280;7500;57.698;11.986;2023-01-31T06:08:40;100686.06;;;5.34;100.00
14818;BME280;7500;57.698;11.986;2023-01-31T06:11:10;100684.34;;;5.33;100.00
14818;BME280;7500;57.698;11.986;2023-01-31T06:13:38;100681.75;;;5.31;100.00
14818;BME280;7500;57.698;11.986;2023-01-31T06:16:05;100660.41;;;5.17;100.00
14818;BME280;7500;57.698;11.986;2023-01-31T06:18:32;100680.84;;;5.34;100.00
14818;BME280;7500;57.698;11.986;2023-01-31T06:20:59;100669.59;;;5.30;100.00
14818;BME280;7500;57.698;11.986;2023-01-31T06:23:27;100679.13;;;5.33;100.00
14818;BME280;7500;57.698;11.986;2023-01-31T06:25:54;100667.06;;;5.27;100.00
14818;BME280;7500;57.698;11.986;2023-01-31T06:28:23;100666.06;;;5.31;100.00
14818;BME280;7500;57.698;11.986;2023-01-31T06:30:50;100660.81;;;5.31;100.00
14818;BME280;7500;57.698;11.986;2023-01-31T06:33:16;100662.50;;;5.34;100.00
14818;BME280;7500;57.698;11.986;2023-01-31T06:35:43;100651.94;;;5.37;100.00
14818;BME280;7500;57.698;11.986;2023-01-31T06:38:10;100646.75;;;5.35;100.00
14818;BME280;7500;57.698;11.986;2023-01-31T06:40:37;100643.09;;;5.41;100.00
14818;BME280;7500;57.698;11.986;2023-01-31T06:43:04;100641.47;;;5.37;100.00
14818;BME280;7500;57.698;11.986;2023-01-31T06:45:33;100638.94;;;5.34;100.00
14818;BME280;7500;57.698;11.986;2023-01-31T06:48:00;100641.59;;;5.32;100.00
14818;BME280;7500;57.698;11.986;2023-01-31T06:50:27;100634.63;;;5.33;100.00
14818;BME280;7500;57.698;11.986;2023-01-31T06:52:54;100626.88;;;5.30;100.00
14818;BME280;7500;57.698;11.986;2023-01-31T06:55:20;100632.09;;;5.30;100.00
14818;BME280;7500;57.698;11.986;2023-01-31T06:57:48;100621.06;;;5.20;100.00
14818;BME280;7500;57.698;11.986;2023-01-31T07:00:16;100623.63;;;5.22;100.00
14818;BME280;7500;57.698;11.986;2023-01-31T07:02:45;100628.94;;;5.20;100.00
14818;BME280;7500;57.698;11.986;2023-01-31T07:05:12;100640.28;;;5.19;100.00
14818;BME280;7500;57.698;11.986;2023-01-31T07:07:39;100644.75;;;5.16;100.00
14818;BME280;7500;57.698;11.986;2023-01-31T07:10:07;100645.56;;;5.18;100.00
14818;BME280;7500;57.698;11.986;2023-01-31T07:12:35;100641.22;;;5.17;100.00
14818;BME280;7500;57.698;11.986;2023-01-31T07:15:02;100624.63;;;5.18;100.00
14818;BME280;7500;57.698;11.986;2023-01-31T07:17:29;100626.31;;;5.20;100.00
14818;BME280;7500;57.698;11.986;2023-01-31T07:19:57;100621.81;;;5.24;100.00
14818;BME280;7500;57.698;11.986;2023-01-31T07:22:24;100619.19;;;5.25;100.00
14818;BME280;7500;57.698;11.986;2023-01-31T07:24:51;100617.47;;;5.24;100.00
14818;BME280;7500;57.698;11.986;2023-01-31T07:27:18;100602.59;;;5.25;100.00
14818;BME280;7500;57.698;11.986;2023-01-31T07:29:45;100614.53;;;5.33;100.00
14818;BME280;7500;57.698;11.986;2023-01-31T07:32:11;100613.63;;;5.34;100.00
14818;BME280;7500;57.698;11.986;2023-01-31T07:34:38;100615.19;;;5.40;100.00
14818;BME280;7500;57.698;11.986;2023-01-31T07:37:07;100615.59;;;5.28;100.00
14818;BME280;7500;57.698;11.986;2023-01-31T07:39:33;100615.94;;;5.43;100.00
14818;BME280;7500;57.698;11.986;2023-01-31T07:42:00;100615.41;;;5.59;100.00
14818;BME280;7500;57.698;11.986;2023-01-31T07:44:27;100608.75;;;5.50;100.00
14818;BME280;7500;57.698;11.986;2023-01-31T07:46:54;100604.28;;;5.53;100.00
14818;BME280;7500;57.698;11.986;2023-01-31T07:49:21;100584.38;;;5.48;100.00
14818;BME280;7500;57.698;11.986;2023-01-31T07:51:48;100593.63;;;5.57;100.00
14818;BME280;7500;57.698;11.986;2023-01-31T07:54:16;100579.00;;;5.52;100.00
14818;BME280;7500;57.698;11.986;2023-01-31T07:56:43;100574.50;;;5.55;100.00
14818;BME280;7500;57.698;11.986;2023-01-31T07:59:10;100568.09;;;5.64;100.00
14818;BME280;7500;57.698;11.986;2023-01-31T08:01:37;100563.91;;;5.84;100.00
14818;BME280;7500;57.698;11.986;2023-01-31T08:04:22;100547.34;;;5.84;100.00
14818;BME280;7500;57.698;11.986;2023-01-31T08:06:52;100538.31;;;5.92;100.00
14818;BME280;7500;57.698;11.986;2023-01-31T08:09:22;100545.75;;;5.80;100.00
14818;BME280;7500;57.698;11.986;2023-01-31T08:11:50;100544.88;;;5.79;100.00
14818;BME280;7500;57.698;11.986;2023-01-31T08:14:17;100541.34;;;5.80;100.00
14818;BME280;7500;57.698;11.986;2023-01-31T08:16:48;100544.47;;;5.91;100.00
14818;BME280;7500;57.698;11.986;2023-01-31T08:19:14;100535.00;;;5.87;100.00
14818;BME280;7500;57.698;11.986;2023-01-31T08:21:41;100528.84;;;5.88;100.00
14818;BME280;7500;57.698;11.986;2023-01-31T08:24:08;100527.09;;;5.89;100.00
14818;BME280;7500;57.698;11.986;2023-01-31T08:26:37;100520.19;;;5.86;100.00
14818;BME280;7500;57.698;11.986;2023-01-31T08:29:04;100513.63;;;5.98;100.00
14818;BME280;7500;57.698;11.986;2023-01-31T08:31:31;100497.91;;;5.98;100.00
14818;BME280;7500;57.698;11.986;2023-01-31T08:33:58;100497.78;;;6.02;100.00
14818;BME280;7500;57.698;11.986;2023-01-31T08:36:26;100483.88;;;6.00;100.00
14818;BME280;7500;57.698;11.986;2023-01-31T08:38:56;100461.50;;;5.92;100.00
14818;BME280;7500;57.698;11.986;2023-01-31T08:41:24;100478.31;;;6.09;100.00
14818;BME280;7500;57.698;11.986;2023-01-31T08:43:54;100477.94;;;6.18;100.00
14818;BME280;7500;57.698;11.986;2023-01-31T08:46:22;100474.25;;;6.24;100.00
14818;BME280;7500;57.698;11.986;2023-01-31T08:48:49;100473.03;;;6.32;100.00
14818;BME280;7500;57.698;11.986;2023-01-31T08:51:16;100464.25;;;6.33;100.00
14818;BME280;7500;57.698;11.986;2023-01-31T08:53:43;100458.25;;;6.30;100.00
14818;BME280;7500;57.698;11.986;2023-01-31T08:56:11;100450.56;;;6.25;100.00
14818;BME280;7500;57.698;11.986;2023-01-31T08:58:40;100459.13;;;6.30;100.00
14818;BME280;7500;57.698;11.986;2023-01-31T09:01:10;100463.47;;;6.31;100.00
14818;BME280;7500;57.698;11.986;2023-01-31T09:03:38;100426.53;;;6.14;100.00
14818;BME280;7500;57.698;11.986;2023-01-31T09:06:06;100448.63;;;6.30;100.00
14818;BME280;7500;57.698;11.986;2023-01-31T09:08:33;100449.25;;;6.37;100.00
14818;BME280;7500;57.698;11.986;2023-01-31T09:11:01;100449.09;;;6.41;100.00
14818;BME280;7500;57.698;11.986;2023-01-31T09:13:29;100454.31;;;6.41;100.00
14818;BME280;7500;57.698;11.986;2023-01-31T09:15:57;100441.03;;;6.46;100.00
14818;BME280;7500;57.698;11.986;2023-01-31T09:18:26;100440.00;;;6.50;100.00
14818;BME280;7500;57.698;11.986;2023-01-31T09:20:53;100435.66;;;6.49;100.00
14818;BME280;7500;57.698;11.986;2023-01-31T09:23:20;100427.59;;;6.53;100.00
14818;BME280;7500;57.698;11.986;2023-01-31T09:25:52;100430.09;;;6.56;100.00
14818;BME280;7500;57.698;11.986;2023-01-31T09:28:20;100413.47;;;6.57;100.00
14818;BME280;7500;57.698;11.986;2023-01-31T09:30:47;100409.59;;;6.66;100.00
14818;BME280;7500;57.698;11.986;2023-01-31T09:33:15;100408.75;;;6.65;100.00
14818;BME280;7500;57.698;11.986;2023-01-31T09:35:54;100397.28;;;6.68;100.00
14818;BME280;7500;57.698;11.986;2023-01-31T09:38:21;100405.81;;;6.72;100.00
14818;BME280;7500;57.698;11.986;2023-01-31T09:40:48;100409.34;;;6.71;100.00
14818;BME280;7500;57.698;11.986;2023-01-31T09:43:17;100402.59;;;6.66;100.00
14818;BME280;7500;57.698;11.986;2023-01-31T09:45:46;100400.69;;;6.69;100.00
14818;BME280;7500;57.698;11.986;2023-01-31T09:48:17;100389.38;;;6.69;100.00
14818;BME280;7500;57.698;11.986;2023-01-31T09:50:50;100389.25;;;6.72;100.00
14818;BME280;7500;57.698;11.986;2023-01-31T09:53:21;100382.22;;;6.72;100.00
14818;BME280;7500;57.698;11.986;2023-01-31T09:55:54;100377.22;;;6.67;100.00
14818;BME280;7500;57.698;11.986;2023-01-31T09:58:29;100364.06;;;6.68;100.00
14818;BME280;7500;57.698;11.986;2023-01-31T10:01:07;100363.00;;;6.72;100.00
14818;BME280;7500;57.698;11.986;2023-01-31T10:03:52;100345.69;;;6.68;100.00
14818;BME280;7500;57.698;11.986;2023-01-31T10:06:28;100318.78;;;6.63;100.00
14818;BME280;7500;57.698;11.986;2023-01-31T10:09:02;100324.97;;;6.62;100.00
14818;BME280;7500;57.698;11.986;2023-01-31T10:11:33;100318.13;;;6.58;100.00
14818;BME280;7500;57.698;11.986;2023-01-31T10:14:12;100315.75;;;6.52;100.00
14818;BME280;7500;57.698;11.986;2023-01-31T10:16:49;100307.91;;;6.52;100.00
14818;BME280;7500;57.698;11.986;2023-01-31T10:19:21;100302.66;;;6.52;100.00
14818;BME280;7500;57.698;11.986;2023-01-31T10:21:54;100303.44;;;6.54;100.00
14818;BME280;7500;57.698;11.986;2023-01-31T10:24:29;100266.53;;;6.39;100.00
14818;BME280;7500;57.698;11.986;2023-01-31T10:27:04;100296.97;;;6.63;100.00
14818;BME280;7500;57.698;11.986;2023-01-31T10:29:36;100300.78;;;6.56;100.00
14818;BME280;7500;57.698;11.986;2023-01-31T10:32:13;100302.06;;;6.66;100.00
14818;BME280;7500;57.698;11.986;2023-01-31T10:34:45;100293.22;;;6.68;100.00
14818;BME280;7500;57.698;11.986;2023-01-31T10:37:18;100292.84;;;6.77;100.00
14818;BME280;7500;57.698;11.986;2023-01-31T10:39:53;100288.09;;;6.85;100.00
14818;BME280;7500;57.698;11.986;2023-01-31T10:42:27;100275.75;;;6.87;100.00
14818;BME280;7500;57.698;11.986;2023-01-31T10:45:01;100282.81;;;6.86;100.00
14818;BME280;7500;57.698;11.986;2023-01-31T10:47:31;100271.44;;;6.86;100.00
14818;BME280;7500;57.698;11.986;2023-01-31T10:49:58;100281.22;;;6.82;100.00
14818;BME280;7500;57.698;11.986;2023-01-31T10:52:44;100281.28;;;6.81;100.00
14818;BME280;7500;57.698;11.986;2023-01-31T10:55:28;100276.25;;;6.76;100.00
14818;BME280;7500;57.698;11.986;2023-01-31T10:57:58;100281.69;;;6.72;100.00
14818;BME280;7500;57.698;11.986;2023-01-31T11:00:28;100281.03;;;6.67;100.00
14818;BME280;7500;57.698;11.986;2023-01-31T11:02:56;100269.66;;;6.67;100.00
14818;BME280;7500;57.698;11.986;2023-01-31T11:05:25;100270.34;;;6.71;100.00
14818;BME280;7500;57.698;11.986;2023-01-31T11:07:56;100266.75;;;6.74;100.00
14818;BME280;7500;57.698;11.986;2023-01-31T11:10:25;100252.72;;;6.75;100.00
14818;BME280;7500;57.698;11.986;2023-01-31T11:12:54;100254.13;;;6.82;100.00
14818;BME280;7500;57.698;11.986;2023-01-31T11:15:24;100244.19;;;6.70;100.00
14818;BME280;7500;57.698;11.986;2023-01-31T11:17:53;100243.31;;;6.69;100.00
14818;BME280;7500;57.698;11.986;2023-01-31T11:20:26;100219.78;;;6.68;100.00
14818;BME280;7500;57.698;11.986;2023-01-31T11:22:58;100224.13;;;6.69;100.00
14818;BME280;7500;57.698;11.986;2023-01-31T11:25:26;100228.44;;;6.70;100.00
14818;BME280;7500;57.698;11.986;2023-01-31T11:27:57;100226.75;;;6.69;100.00
14818;BME280;7500;57.698;11.986;2023-01-31T11:30:27;100204.53;;;6.58;100.00
14818;BME280;7500;57.698;11.986;2023-01-31T11:32:56;100209.47;;;6.64;100.00
14818;BME280;7500;57.698;11.986;2023-01-31T11:35:25;100194.03;;;6.58;100.00
14818;BME280;7500;57.698;11.986;2023-01-31T11:37:54;100186.84;;;6.63;100.00
14818;BME280;7500;57.698;11.986;2023-01-31T11:40:29;100180.31;;;6.51;100.00
14818;BME280;7500;57.698;11.986;2023-01-31T11:42:59;100171.81;;;6.46;100.00
14818;BME280;7500;57.698;11.986;2023-01-31T11:45:27;100153.53;;;6.45;100.00
14818;BME280;7500;57.698;11.986;2023-01-31T11:47:57;100145.75;;;6.43;100.00
14818;BME280;7500;57.698;11.986;2023-01-31T11:50:31;100128.00;;;6.48;100.00
14818;BME280;7500;57.698;11.986;2023-01-31T11:52:59;100118.81;;;6.40;100.00
14818;BME280;7500;57.698;11.986;2023-01-31T11:55:35;100093.63;;;6.36;100.00
14818;BME280;7500;57.698;11.986;2023-01-31T11:58:08;100107.81;;;6.50;100.00
14818;BME280;7500;57.698;11.986;2023-01-31T12:00:53;100088.50;;;6.53;100.00
14818;BME280;7500;57.698;11.986;2023-01-31T12:03:22;100083.75;;;6.61;100.00
14818;BME280;7500;57.698;11.986;2023-01-31T12:05:58;100072.03;;;6.68;100.00
14818;BME280;7500;57.698;11.986;2023-01-31T12:08:28;100052.78;;;6.68;100.00
14818;BME280;7500;57.698;11.986;2023-01-31T12:10:57;100040.44;;;6.70;100.00
14818;BME280;7500;57.698;11.986;2023-01-31T12:13:24;100030.09;;;6.68;100.00
14818;BME280;7500;57.698;11.986;2023-01-31T12:15:55;99992.28;;;6.55;100.00
14818;BME280;7500;57.698;11.986;2023-01-31T12:18:47;99995.72;;;6.73;100.00
14818;BME280;7500;57.698;11.986;2023-01-31T12:21:26;99971.13;;;6.76;100.00
14818;BME280;7500;57.698;11.986;2023-01-31T12:24:04;99977.63;;;6.68;100.00
14818;BME280;7500;57.698;11.986;2023-01-31T12:26:44;99969.06;;;6.64;100.00
14818;BME280;7500;57.698;11.986;2023-01-31T12:29:23;99965.31;;;6.69;100.00
14818;BME280;7500;57.698;11.986;2023-01-31T12:32:05;99950.28;;;6.73;100.00
14818;BME280;7500;57.698;11.986;2023-01-31T12:34:50;99954.75;;;6.71;100.00
14818;BME280;7500;57.698;11.986;2023-01-31T12:37:32;99938.25;;;6.69;100.00
14818;BME280;7500;57.698;11.986;2023-01-31T12:40:13;99938.53;;;6.63;100.00
14818;BME280;7500;57.698;11.986;2023-01-31T12:42:50;99932.38;;;6.64;100.00
14818;BME280;7500;57.698;11.986;2023-01-31T12:45:53;99938.25;;;6.69;100.00
14818;BME280;7500;57.698;11.986;2023-01-31T12:51:38;99925.59;;;6.42;100.00
14818;BME280;7500;57.698;11.986;2023-01-31T12:54:19;99912.84;;;6.34;100.00
14818;BME280;7500;57.698;11.986;2023-01-31T12:57:02;99907.75;;;6.31;100.00
14818;BME280;7500;57.698;11.986;2023-01-31T12:59:46;99904.75;;;6.39;100.00
14818;BME280;7500;57.698;11.986;2023-01-31T13:02:30;99872.03;;;6.81;100.00
14818;BME280;7500;57.698;11.986;2023-01-31T13:05:08;99871.28;;;7.13;100.00
14818;BME280;7500;57.698;11.986;2023-01-31T13:07:40;99872.50;;;7.23;100.00
14818;BME280;7500;57.698;11.986;2023-01-31T13:10:25;99859.63;;;7.18;100.00
14818;BME280;7500;57.698;11.986;2023-01-31T13:12:57;99842.91;;;7.36;100.00
14818;BME280;7500;57.698;11.986;2023-01-31T13:15:30;99836.25;;;6.80;100.00
14818;BME280;7500;57.698;11.986;2023-01-31T13:18:03;99826.94;;;6.58;100.00
14818;BME280;7500;57.698;11.986;2023-01-31T13:20:34;99819.91;;;6.58;100.00